createdAt,value
2022-09-07T00:02:52.623Z,15.40
2022-09-07T00:06:00.410Z,15.50
2022-09-07T00:09:00.594Z,15.40
2022-09-07T00:12:06.442Z,15.40
2022-09-07T00:15:16.852Z,15.30
2022-09-07T00:18:16.291Z,15.20
2022-09-07T00:21:25.875Z,15.20
2022-09-07T00:24:25.258Z,15.10
2022-09-07T00:27:32.475Z,15.10
2022-09-07T00:30:41.453Z,15.00
2022-09-07T00:33:41.589Z,15.00
2022-09-07T00:36:47.448Z,14.90
2022-09-07T00:39:54.485Z,14.90
2022-09-07T00:42:54.246Z,14.90
2022-09-07T00:46:02.506Z,14.90
2022-09-07T00:49:08.339Z,14.80
2022-09-07T00:52:19.692Z,14.70
2022-09-07T00:55:26.457Z,14.60
2022-09-07T00:58:28.595Z,14.60
2022-09-07T01:01:37.929Z,14.40
2022-09-07T01:04:46.443Z,14.40
2022-09-07T01:07:48.559Z,14.30
2022-09-07T01:10:56.915Z,14.30
2022-09-07T01:13:58.969Z,14.30
2022-09-07T01:17:18.476Z,14.40
2022-09-07T01:20:49.978Z,14.40
2022-09-07T01:24:05.272Z,14.40
2022-09-07T01:28:01.480Z,14.50
2022-09-07T01:31:13.493Z,14.30
2022-09-07T01:34:13.982Z,14.20
2022-09-07T01:37:17.251Z,14.10
2022-09-07T01:40:15.619Z,14.20
2022-09-07T01:43:17.092Z,14.00
2022-09-07T01:46:21.621Z,13.80
2022-09-07T01:49:19.797Z,13.70
2022-09-07T01:52:18.476Z,13.70
2022-09-07T01:55:17.986Z,13.60
2022-09-07T01:58:14.482Z,13.60
2022-09-07T02:01:12.212Z,13.50
2022-09-07T02:04:11.842Z,13.50
2022-09-07T02:07:13.121Z,13.40
2022-09-07T02:10:10.811Z,13.40
2022-09-07T02:13:07.948Z,13.30
2022-09-07T02:16:04.171Z,13.30
2022-09-07T02:19:02.484Z,13.30
2022-09-07T02:22:03.965Z,13.20
2022-09-07T02:25:02.069Z,13.20
2022-09-07T02:28:00.203Z,13.20
2022-09-07T02:30:54.553Z,13.10
2022-09-07T02:33:55.206Z,13.20
2022-09-07T02:36:53.010Z,13.20
2022-09-07T02:39:49.646Z,13.10
2022-09-07T02:42:44.960Z,13.10
2022-09-07T02:45:52.244Z,13.30
2022-09-07T02:48:53.889Z,13.10
2022-09-07T02:51:57.500Z,13.10
2022-09-07T02:55:06.178Z,13.00
2022-09-07T02:58:10.367Z,13.00
2022-09-07T03:01:15.190Z,12.90
2022-09-07T03:04:14.773Z,12.90
2022-09-07T03:07:14.223Z,12.90
2022-09-07T03:10:11.308Z,13.00
2022-09-07T03:13:05.797Z,13.00
2022-09-07T03:16:00.246Z,13.00
2022-09-07T03:18:55.219Z,13.10
2022-09-07T03:21:50.316Z,13.10
2022-09-07T03:24:45.115Z,13.10
2022-09-07T03:27:40.635Z,13.10
2022-09-07T03:30:35.664Z,13.10
2022-09-07T03:33:30.347Z,13.10
2022-09-07T03:36:24.967Z,13.10
2022-09-07T03:39:21.356Z,13.20
2022-09-07T03:42:16.305Z,13.20
2022-09-07T03:45:13.368Z,13.30
2022-09-07T03:48:07.900Z,13.30
2022-09-07T03:51:03.200Z,13.40
2022-09-07T03:53:57.879Z,13.50
2022-09-07T03:56:52.265Z,13.60
2022-09-07T03:59:47.717Z,13.60
2022-09-07T04:02:42.876Z,13.60
2022-09-07T04:05:36.532Z,13.70
2022-09-07T04:08:31.227Z,13.70
2022-09-07T04:11:25.074Z,13.80
2022-09-07T04:14:18.053Z,13.80
2022-09-07T04:17:11.098Z,13.90
2022-09-07T04:20:05.812Z,14.00
2022-09-07T04:23:00.901Z,14.00
2022-09-07T04:25:54.295Z,14.00
2022-09-07T04:28:48.954Z,14.00
2022-09-07T04:31:42.299Z,14.10
2022-09-07T04:34:35.864Z,14.10
2022-09-07T04:37:30.834Z,14.20
2022-09-07T04:40:23.973Z,14.30
2022-09-07T04:43:17.360Z,14.30
2022-09-07T04:46:18.905Z,14.40
2022-09-07T04:49:14.014Z,14.40
2022-09-07T04:52:07.332Z,14.30
2022-09-07T04:55:02.420Z,14.30
2022-09-07T04:57:57.132Z,14.20
2022-09-07T05:00:50.059Z,14.20
2022-09-07T05:03:43.155Z,14.20
2022-09-07T05:06:36.415Z,14.10
2022-09-07T05:09:30.460Z,14.10
2022-09-07T05:12:25.787Z,14.00
2022-09-07T05:15:19.376Z,14.00
2022-09-07T05:18:13.825Z,14.00
2022-09-07T05:21:17.411Z,14.00
2022-09-07T05:24:11.272Z,14.00
2022-09-07T05:27:11.108Z,14.00
2022-09-07T05:36:51.365Z,14.10
2022-09-07T05:39:45.366Z,14.10
2022-09-07T05:42:45.729Z,14.10
2022-09-07T05:49:55.252Z,14.20
2022-09-07T05:52:51.969Z,14.40
2022-09-07T05:55:39.173Z,14.50
2022-09-07T05:58:26.144Z,14.40
2022-09-07T06:01:14.533Z,14.40
2022-09-07T06:04:02.045Z,14.40
2022-09-07T06:07:11.029Z,14.40
2022-09-07T06:13:04.382Z,14.50
2022-09-07T06:15:51.041Z,14.60
2022-09-07T06:18:39.806Z,14.80
2022-09-07T06:21:26.474Z,14.90
2022-09-07T06:24:13.806Z,15.00
2022-09-07T06:27:05.324Z,15.10
2022-09-07T06:29:52.461Z,15.20
2022-09-07T06:32:42.948Z,15.30
2022-09-07T06:35:30.303Z,15.40
2022-09-07T06:38:17.575Z,15.70
2022-09-07T06:44:14.175Z,16.20
2022-09-07T06:49:53.630Z,18.20
2022-09-07T06:55:47.791Z,20.10
2022-09-07T06:58:36.173Z,21.10
2022-09-07T07:01:29.258Z,21.80
2022-09-07T07:04:16.152Z,21.70
2022-09-07T07:07:02.926Z,22.20
2022-09-07T07:09:52.092Z,22.80
2022-09-07T07:15:27.478Z,23.80
2022-09-07T07:18:21.113Z,24.20
2022-09-07T07:21:10.248Z,24.40
2022-09-07T07:23:57.021Z,24.90
2022-09-07T07:26:48.721Z,25.60
2022-09-07T07:29:35.689Z,25.30
2022-09-07T07:32:22.645Z,25.60
2022-09-07T07:35:11.914Z,25.60
2022-09-07T07:44:13.359Z,24.70
2022-09-07T07:47:00.166Z,25.80
2022-09-07T07:49:47.614Z,26.20
2022-09-07T07:53:41.128Z,26.70
2022-09-07T07:55:44.877Z,27.20
2022-09-07T07:58:33.066Z,27.20
2022-09-07T08:01:20.340Z,26.00
2022-09-07T08:04:07.202Z,26.40
2022-09-07T08:06:53.924Z,26.30
2022-09-07T08:09:43.778Z,25.30
2022-09-07T08:12:31.293Z,24.20
2022-09-07T08:15:18.204Z,23.20
2022-09-07T08:18:05.740Z,23.00
2022-09-07T08:20:52.582Z,23.00
2022-09-07T08:23:40.239Z,22.60
2022-09-07T08:26:28.857Z,22.90
2022-09-07T08:29:15.896Z,22.80
2022-09-07T08:32:02.750Z,22.20
2022-09-07T08:34:49.632Z,22.80
2022-09-07T08:37:36.821Z,23.60
2022-09-07T08:40:23.975Z,23.80
2022-09-07T08:43:20.415Z,24.20
2022-09-07T08:46:15.178Z,25.10
2022-09-07T08:49:04.737Z,25.60
2022-09-07T08:51:58.404Z,25.80
2022-09-07T08:54:54.720Z,25.30
2022-09-07T08:57:59.615Z,25.00
2022-09-07T09:01:30.734Z,26.20
2022-09-07T09:04:19.174Z,25.80
2022-09-07T09:07:18.691Z,26.30
2022-09-07T09:10:22.959Z,25.60
2022-09-07T09:13:16.984Z,25.50
2022-09-07T09:16:11.307Z,24.90
2022-09-07T09:19:21.911Z,25.20
2022-09-07T09:22:14.613Z,24.30
2022-09-07T09:25:08.220Z,24.40
2022-09-07T09:27:55.761Z,24.30
2022-09-07T09:30:43.557Z,24.40
2022-09-07T09:33:31.696Z,25.00
2022-09-07T09:36:26.780Z,25.40
2022-09-07T09:39:31.344Z,25.10
2022-09-07T09:42:24.483Z,25.30
2022-09-07T09:45:16.794Z,25.70
2022-09-07T09:48:10.703Z,25.70
2022-09-07T09:54:20.615Z,27.10
2022-09-07T09:57:17.373Z,25.80
2022-09-07T10:00:27.878Z,26.10
2022-09-07T10:06:27.466Z,25.70
2022-09-07T10:09:19.948Z,25.10
2022-09-07T10:12:08.873Z,25.20
2022-09-07T10:14:57.675Z,25.10
2022-09-07T10:17:49.804Z,24.40
2022-09-07T10:20:38.973Z,23.70
2022-09-07T10:23:29.122Z,24.60
2022-09-07T10:26:29.459Z,25.00
2022-09-07T10:29:19.270Z,25.90
2022-09-07T10:32:24.586Z,26.10
2022-09-07T10:35:19.049Z,25.00
2022-09-07T10:38:17.431Z,25.00
2022-09-07T10:41:08.441Z,27.20
2022-09-07T10:43:55.621Z,28.10
2022-09-07T10:46:59.077Z,28.30
2022-09-07T10:53:39.121Z,30.00
2022-09-07T10:56:23.430Z,30.80
2022-09-07T11:00:07.421Z,30.30
2022-09-07T11:06:08.395Z,31.00
2022-09-07T11:09:17.656Z,30.10
2022-09-07T11:12:10.411Z,29.40
2022-09-07T11:15:15.510Z,29.50
2022-09-07T11:18:08.234Z,29.20
2022-09-07T11:20:58.904Z,30.10
2022-09-07T11:23:51.451Z,28.90
2022-09-07T11:26:42.678Z,29.50
2022-09-07T11:29:37.527Z,29.90
2022-09-07T11:32:26.492Z,30.30
2022-09-07T11:35:20.277Z,30.20
2022-09-07T11:38:14.897Z,30.20
2022-09-07T11:41:14.822Z,30.00
2022-09-07T11:44:13.420Z,29.40
2022-09-07T11:47:05.755Z,28.00
2022-09-07T11:50:25.725Z,27.70
2022-09-07T11:53:36.736Z,27.60
2022-09-07T11:56:36.243Z,27.60
2022-09-07T11:59:46.223Z,27.50
2022-09-07T12:03:05.661Z,27.60
2022-09-07T12:06:09.707Z,27.90
2022-09-07T12:09:13.050Z,28.10
2022-09-07T12:12:22.541Z,28.50
2022-09-07T12:15:24.740Z,28.50
2022-09-07T12:18:27.817Z,27.90
2022-09-07T12:21:35.896Z,27.20
2022-09-07T12:24:43.441Z,27.20
2022-09-07T12:27:40.839Z,27.30
2022-09-07T12:30:57.107Z,27.50
2022-09-07T12:33:46.285Z,27.60
2022-09-07T12:36:43.332Z,27.70
2022-09-07T12:39:32.670Z,28.20
2022-09-07T12:42:32.773Z,28.10
2022-09-07T12:45:49.699Z,28.10
2022-09-07T12:48:57.907Z,28.10
2022-09-07T12:52:09.116Z,27.50
2022-09-07T12:55:29.619Z,26.60
2022-09-07T12:58:31.990Z,26.40
2022-09-07T13:01:31.079Z,26.60
2022-09-07T13:04:42.429Z,26.80
2022-09-07T13:07:48.486Z,26.90
2022-09-07T13:10:37.198Z,26.80
2022-09-07T13:20:23.635Z,25.90
2022-09-07T13:23:21.307Z,25.80
2022-09-07T13:26:09.693Z,25.60
2022-09-07T13:28:58.964Z,25.80
2022-09-07T13:31:53.763Z,25.90
2022-09-07T13:34:51.093Z,25.90
2022-09-07T13:37:48.456Z,26.00
2022-09-07T13:40:39.519Z,25.90
2022-09-07T13:43:26.306Z,25.20
2022-09-07T13:46:44.895Z,24.70
2022-09-07T13:50:00.184Z,24.50
2022-09-07T13:53:23.327Z,24.70
2022-09-07T13:56:23.459Z,24.70
2022-09-07T13:59:20.501Z,25.30
2022-09-07T14:02:23.675Z,25.80
2022-09-07T14:05:12.934Z,25.80
2022-09-07T14:08:01.222Z,25.80
2022-09-07T14:10:49.615Z,25.50
2022-09-07T14:13:36.411Z,25.60
2022-09-07T14:16:23.473Z,25.40
2022-09-07T14:19:12.658Z,25.60
2022-09-07T14:22:01.696Z,25.80
2022-09-07T14:24:51.875Z,25.80
2022-09-07T14:27:41.867Z,25.70
2022-09-07T14:30:34.173Z,25.60
2022-09-07T14:33:21.659Z,25.30
2022-09-07T14:36:23.543Z,25.00
2022-09-07T14:39:18.108Z,25.00
2022-09-07T14:42:07.773Z,24.90
2022-09-07T14:45:21.011Z,24.60
2022-09-07T14:48:14.738Z,24.70
2022-09-07T14:51:29.093Z,25.10
2022-09-07T14:54:19.964Z,24.90
2022-09-07T14:57:31.991Z,24.80
2022-09-07T15:00:30.818Z,24.80
2022-09-07T15:03:27.434Z,24.60
2022-09-07T15:07:00.941Z,24.60
2022-09-07T15:09:29.301Z,24.60
2022-09-07T15:12:37.961Z,24.70
2022-09-07T15:15:28.388Z,24.80
2022-09-07T15:18:56.794Z,24.80
2022-09-07T15:21:44.213Z,24.60
2022-09-07T15:24:31.158Z,24.50
2022-09-07T15:27:28.253Z,24.40
2022-09-07T15:30:17.592Z,24.30
2022-09-07T15:33:04.436Z,24.20
2022-09-07T15:35:51.571Z,24.00
2022-09-07T15:41:46.128Z,23.50
2022-09-07T15:44:34.475Z,23.20
2022-09-07T15:50:27.664Z,22.90
2022-09-07T15:56:21.830Z,22.50
2022-09-07T15:59:08.619Z,22.30
2022-09-07T16:01:58.139Z,22.10
2022-09-07T16:04:45.622Z,21.90
2022-09-07T16:10:41.130Z,21.70
2022-09-07T16:13:31.384Z,21.80
2022-09-07T16:16:18.865Z,21.70
2022-09-07T16:19:10.347Z,21.60
2022-09-07T16:21:57.829Z,21.50
2022-09-07T16:24:45.430Z,21.50
2022-09-07T16:27:33.821Z,21.40
2022-09-07T16:30:22.217Z,21.40
2022-09-07T16:33:09.610Z,21.30
2022-09-07T16:36:02.264Z,21.20
2022-09-07T16:38:49.543Z,21.10
2022-09-07T16:41:36.822Z,21.00
2022-09-07T16:44:23.617Z,20.90
2022-09-07T16:47:10.679Z,20.80
2022-09-07T16:49:57.789Z,20.60
2022-09-07T16:52:46.018Z,20.50
2022-09-07T16:55:33.225Z,20.40
2022-09-07T16:58:36.210Z,20.40
2022-09-07T17:01:26.076Z,20.20
2022-09-07T17:04:13.143Z,20.00
2022-09-07T17:07:00.264Z,19.80
2022-09-07T17:09:48.406Z,19.70
2022-09-07T17:12:35.210Z,19.60
2022-09-07T17:15:22.060Z,19.60
2022-09-07T17:18:09.043Z,19.30
2022-09-07T17:20:58.640Z,19.10
2022-09-07T17:23:51.896Z,19.10
2022-09-07T17:26:43.192Z,18.90
2022-09-07T17:29:37.015Z,18.80
2022-09-07T17:32:25.384Z,18.70
2022-09-07T17:35:12.829Z,18.40
2022-09-07T17:38:01.132Z,18.30
2022-09-07T17:40:48.492Z,18.20
2022-09-07T17:43:45.358Z,18.10
2022-09-07T17:46:44.921Z,18.10
2022-09-07T17:49:31.590Z,17.90
2022-09-07T17:52:18.423Z,17.80
2022-09-07T17:55:06.750Z,17.80
2022-09-07T17:57:53.935Z,17.70
2022-09-07T18:00:42.199Z,17.50
2022-09-07T18:03:34.372Z,17.50
2022-09-07T18:06:22.677Z,17.50
2022-09-07T18:09:09.439Z,17.50
2022-09-07T18:11:56.172Z,17.30
2022-09-07T18:14:43.746Z,17.30
2022-09-07T18:17:32.025Z,17.40
2022-09-07T18:20:19.219Z,17.30
2022-09-07T18:23:06.611Z,17.40
2022-09-07T18:26:00.757Z,17.40
2022-09-07T18:29:13.112Z,17.40
2022-09-07T18:31:58.603Z,17.40
2022-09-07T18:34:50.733Z,17.40
2022-09-07T18:37:39.516Z,17.40
2022-09-07T18:40:27.032Z,17.30
2022-09-07T18:43:13.781Z,17.20
2022-09-07T18:46:05.918Z,17.20
2022-09-07T18:48:55.217Z,17.10
2022-09-07T18:54:50.726Z,17.00
2022-09-07T18:57:38.396Z,16.90
2022-09-07T19:00:25.788Z,16.80
2022-09-07T19:03:12.839Z,16.70
2022-09-07T19:06:00.894Z,16.70
2022-09-07T19:08:49.069Z,16.60
2022-09-07T19:11:36.030Z,16.60
2022-09-07T19:14:22.790Z,16.60
2022-09-07T19:17:11.804Z,16.50
2022-09-07T19:19:59.120Z,16.50
2022-09-07T19:22:45.976Z,16.40
2022-09-07T19:25:34.426Z,16.40
2022-09-07T19:28:21.765Z,16.30
2022-09-07T19:31:09.114Z,16.30
2022-09-07T19:33:56.702Z,16.30
2022-09-07T19:36:43.745Z,16.30
2022-09-07T19:39:30.876Z,16.40
2022-09-07T19:42:21.582Z,16.40
2022-09-07T19:45:09.343Z,16.40
2022-09-07T19:47:56.373Z,16.40
2022-09-07T19:50:44.869Z,16.30
2022-09-07T19:53:33.307Z,16.20
2022-09-07T19:56:22.003Z,16.30
2022-09-07T19:59:10.153Z,16.20
2022-09-07T20:01:57.281Z,16.30
2022-09-07T20:04:44.618Z,16.20
2022-09-07T20:07:31.342Z,16.20
2022-09-07T20:10:18.693Z,16.30
2022-09-07T20:13:05.777Z,16.20
2022-09-07T20:15:53.928Z,16.30
2022-09-07T20:18:41.418Z,16.40
2022-09-07T20:21:29.255Z,16.50
2022-09-07T20:24:22.287Z,16.50
2022-09-07T20:27:09.396Z,16.40
2022-09-07T20:29:56.492Z,16.40
2022-09-07T20:32:44.995Z,16.40
2022-09-07T20:35:33.039Z,16.30
2022-09-07T20:38:21.402Z,16.30
2022-09-07T20:41:08.438Z,16.20
2022-09-07T20:43:57.063Z,16.30
2022-09-07T20:46:44.321Z,16.30
2022-09-07T20:49:32.986Z,16.30
2022-09-07T20:52:20.062Z,16.30
2022-09-07T20:55:08.200Z,16.30
2022-09-07T20:57:56.409Z,16.30
2022-09-07T21:00:43.649Z,16.30
2022-09-07T21:03:30.846Z,16.30
2022-09-07T21:06:21.128Z,16.20
2022-09-07T21:09:10.580Z,16.20
2022-09-07T21:11:57.728Z,16.20
2022-09-07T21:14:46.042Z,16.20
2022-09-07T21:17:33.138Z,16.10
2022-09-07T21:20:19.858Z,16.10
2022-09-07T21:23:08.324Z,16.10
2022-09-07T21:25:55.533Z,16.00
2022-09-07T21:28:42.392Z,15.90
2022-09-07T21:31:31.379Z,15.90
2022-09-07T21:34:18.411Z,15.80
2022-09-07T21:37:05.424Z,15.80
2022-09-07T21:39:53.950Z,15.80
2022-09-07T21:42:41.173Z,15.70
2022-09-07T21:45:27.915Z,15.60
2022-09-07T21:48:15.121Z,15.60
2022-09-07T21:51:02.027Z,15.50
2022-09-07T21:53:52.880Z,15.50
2022-09-07T21:56:46.367Z,15.40
2022-09-07T21:59:34.335Z,15.40
2022-09-07T22:02:21.499Z,15.40
2022-09-07T22:05:09.767Z,15.30
2022-09-07T22:07:56.685Z,15.20
2022-09-07T22:10:45.078Z,15.20
2022-09-07T22:13:34.033Z,15.30
2022-09-07T22:16:21.328Z,15.30
2022-09-07T22:19:08.183Z,15.20
2022-09-07T22:21:54.910Z,15.30
2022-09-07T22:24:41.333Z,15.30
2022-09-07T22:27:30.213Z,15.30
2022-09-07T22:30:18.404Z,15.30
2022-09-07T22:33:05.567Z,15.30
2022-09-07T22:35:52.013Z,15.20
2022-09-07T22:38:38.662Z,15.20
2022-09-07T22:41:27.205Z,15.10
2022-09-07T22:44:15.298Z,15.10
2022-09-07T22:47:03.551Z,15.10
2022-09-07T22:49:50.423Z,15.10
2022-09-07T22:52:37.370Z,15.00
2022-09-07T22:55:24.516Z,15.00
2022-09-07T22:58:11.529Z,15.00
2022-09-07T23:01:00.581Z,14.90
2022-09-07T23:03:49.947Z,14.90
2022-09-07T23:06:38.644Z,14.90
2022-09-07T23:09:25.650Z,14.90
2022-09-07T23:12:12.209Z,14.80
2022-09-07T23:14:59.024Z,14.80
2022-09-07T23:17:46.522Z,14.80
2022-09-07T23:20:35.137Z,14.90
2022-09-07T23:23:21.883Z,14.80
2022-09-07T23:26:09.177Z,14.80
2022-09-07T23:28:57.838Z,14.80
2022-09-07T23:31:46.353Z,14.80
2022-09-07T23:34:33.374Z,14.80
2022-09-07T23:37:21.791Z,14.80
2022-09-07T23:40:10.394Z,14.80
2022-09-07T23:42:57.227Z,14.80
2022-09-07T23:45:44.132Z,14.80
2022-09-07T23:48:31.119Z,14.80
2022-09-07T23:51:23.059Z,14.80
2022-09-07T23:54:12.605Z,14.80
2022-09-07T23:56:59.263Z,14.90
2022-09-07T23:59:48.296Z,14.90
